Time;durP1;ratioP1;P1;durP2;ratioP2;P2;SDS_P1;SDS_P2;PMS_P1;PMS_P2;Temp;Humidity;BMP_temperature;BMP_pressure;BME280_temperature;BME280_humidity;BME280_pressure;Samples;Min_cycle;Max_cycle;Signal;HPM_P1;HPM_P2
2023/05/31 00:00:08;;;;;;;3.80;1.30;;;15.90;67.70;;;;;;6158341;23;20021;-65
2023/05/31 00:02:34;;;;;;;3.05;1.02;;;15.90;67.70;;;;;;6158723;23;20481;-66
2023/05/31 00:04:59;;;;;;;2.10;0.93;;;15.90;67.70;;;;;;6132892;23;20018;-65
2023/05/31 00:07:25;;;;;;;2.03;1.00;;;15.90;67.70;;;;;;6158793;23;20021;-66
2023/05/31 00:09:51;;;;;;;1.60;1.13;;;15.80;67.70;;;;;;6133299;23;20311;-66
2023/05/31 00:12:16;;;;;;;3.20;1.15;;;15.90;67.60;;;;;;6158303;23;20013;-65
2023/05/31 00:14:42;;;;;;;1.98;1.17;;;15.90;67.70;;;;;;6133149;23;20028;-65
2023/05/31 00:17:08;;;;;;;2.33;1.25;;;15.90;67.60;;;;;;6158585;23;20056;-65
2023/05/31 00:19:33;;;;;;;1.80;0.90;;;15.90;67.60;;;;;;6158759;23;20100;-66
2023/05/31 00:21:59;;;;;;;1.90;0.98;;;15.90;67.70;;;;;;6158141;23;20027;-65
2023/05/31 00:24:25;;;;;;;2.50;0.98;;;15.90;67.70;;;;;;6158655;23;20100;-66
2023/05/31 00:26:51;;;;;;;2.65;1.40;;;15.90;67.60;;;;;;6159079;23;20072;-65
2023/05/31 00:29:16;;;;;;;2.13;1.05;;;15.90;67.60;;;;;;6158311;23;20072;-65
2023/05/31 00:31:42;;;;;;;3.85;1.10;;;15.90;67.60;;;;;;6159115;23;20022;-65
2023/05/31 00:34:10;;;;;;;2.33;0.90;;;15.80;67.50;;;;;;6159108;23;20310;-65
2023/05/31 00:36:36;;;;;;;3.45;1.40;;;15.80;67.50;;;;;;6159011;23;20276;-65
2023/05/31 00:39:02;;;;;;;2.83;1.27;;;15.90;67.60;;;;;;6158451;23;20017;-66
2023/05/31 00:41:27;;;;;;;2.05;0.98;;;15.90;67.60;;;;;;6157879;23;20477;-65
2023/05/31 00:43:53;;;;;;;2.17;0.98;;;15.90;67.60;;;;;;6158403;23;20021;-66
2023/05/31 00:46:28;;;;;;;1.92;1.20;;;15.90;67.60;;;;;;6158876;23;20021;-65
2023/05/31 00:48:55;;;;;;;3.42;1.33;;;15.90;67.60;;;;;;6157828;23;20499;-66
2023/05/31 00:51:21;;;;;;;4.03;1.23;;;15.80;67.50;;;;;;6158420;23;20359;-65
2023/05/31 00:53:47;;;;;;;1.65;0.93;;;15.80;67.60;;;;;;6158038;23;20029;-65
2023/05/31 00:56:15;;;;;;;2.05;1.00;;;15.80;67.50;;;;;;6158707;23;20284;-65
2023/05/31 00:58:41;;;;;;;1.50;1.10;;;15.80;67.50;;;;;;6158280;23;20081;-66
2023/05/31 01:01:08;;;;;;;3.00;1.38;;;15.80;67.50;;;;;;6159156;23;20018;-66
2023/05/31 01:03:33;;;;;;;2.13;1.10;;;15.80;67.50;;;;;;6158173;23;20028;-65
2023/05/31 01:06:00;;;;;;;2.38;1.15;;;15.80;67.50;;;;;;6157583;23;20021;-65
2023/05/31 01:08:26;;;;;;;1.60;1.00;;;15.80;67.50;;;;;;6158072;23;20021;-65
2023/05/31 01:10:57;;;;;;;2.55;1.27;;;15.80;67.50;;;;;;6158654;23;20083;-65
2023/05/31 01:13:38;;;;;;;1.17;0.85;;;15.80;67.50;;;;;;6158115;23;20014;-65
2023/05/31 01:16:13;;;;;;;1.70;1.00;;;15.80;67.50;;;;;;6157965;23;20053;-64
2023/05/31 01:18:48;;;;;;;2.90;1.40;;;15.80;67.50;;;;;;6158066;23;20053;-65
2023/05/31 01:21:19;;;;;;;2.53;1.15;;;15.80;67.50;;;;;;6158044;23;20326;-65
2023/05/31 01:24:25;;;;;;;2.50;1.25;;;15.80;67.50;;;;;;6132929;23;20022;-66
2023/05/31 01:26:53;;;;;;;1.90;1.08;;;15.80;67.50;;;;;;6158044;23;20025;-66
2023/05/31 01:29:21;;;;;;;1.75;0.95;;;15.80;67.60;;;;;;6157926;23;20018;-65
2023/05/31 01:31:49;;;;;;;2.00;1.30;;;15.80;67.60;;;;;;6158061;23;20021;-65
2023/05/31 01:34:15;;;;;;;1.98;1.20;;;15.80;67.50;;;;;;6158121;23;20024;-65
2023/05/31 01:36:41;;;;;;;2.28;1.02;;;15.80;67.50;;;;;;6158011;23;20013;-65
2023/05/31 01:39:08;;;;;;;1.85;1.00;;;15.80;67.50;;;;;;6157916;23;20018;-65
2023/05/31 01:41:38;;;;;;;1.85;0.95;;;15.80;67.50;;;;;;6132176;23;20018;-65
2023/05/31 01:44:06;;;;;;;1.65;1.27;;;15.80;67.50;;;;;;6157526;23;20021;-65
2023/05/31 01:46:31;;;;;;;4.32;1.33;;;15.80;67.50;;;;;;6158394;23;20343;-65
2023/05/31 01:48:59;;;;;;;2.05;1.05;;;15.80;67.50;;;;;;6157873;23;20031;-66
2023/05/31 01:51:26;;;;;;;2.00;1.38;;;15.80;67.50;;;;;;6158190;23;20040;-66
2023/05/31 01:53:52;;;;;;;3.30;1.48;;;15.80;67.50;;;;;;6157749;23;20021;-65
2023/05/31 01:56:20;;;;;;;1.73;1.02;;;15.80;67.50;;;;;;6157534;23;20076;-66
2023/05/31 01:58:49;;;;;;;2.63;1.40;;;15.80;67.50;;;;;;6157975;23;20093;-66
2023/05/31 02:01:17;;;;;;;2.92;1.33;;;15.80;67.50;;;;;;6158787;23;20105;-66
2023/05/31 02:03:43;;;;;;;2.15;0.90;;;15.80;67.50;;;;;;6157965;23;20017;-66
2023/05/31 02:06:12;;;;;;;2.33;1.30;;;15.80;67.40;;;;;;6157718;23;20326;-65
2023/05/31 02:08:39;;;;;;;2.72;1.45;;;15.80;67.50;;;;;;6157887;23;20017;-65
2023/05/31 02:11:05;;;;;;;3.10;1.45;;;15.80;67.40;;;;;;6158247;23;20083;-65
2023/05/31 02:13:31;;;;;;;3.00;1.33;;;15.80;67.40;;;;;;6157705;23;20419;-66
2023/05/31 02:15:57;;;;;;;2.47;1.20;;;15.80;67.40;;;;;;6157361;23;20053;-66
2023/05/31 02:18:26;;;;;;;2.30;1.20;;;15.80;67.40;;;;;;6132070;23;20028;-65
2023/05/31 02:20:53;;;;;;;1.70;1.40;;;15.80;67.40;;;;;;6158108;23;20025;-66
2023/05/31 02:23:20;;;;;;;2.35;1.33;;;15.80;67.40;;;;;;6159677;23;20052;-66
2023/05/31 02:25:46;;;;;;;2.70;1.38;;;15.80;67.40;;;;;;6159573;23;20021;-66
2023/05/31 02:28:13;;;;;;;3.90;1.42;;;15.80;67.40;;;;;;6134157;23;20426;-65
2023/05/31 02:30:40;;;;;;;2.40;1.25;;;15.70;67.30;;;;;;6159098;23;20092;-65
2023/05/31 02:33:07;;;;;;;3.13;1.13;;;15.80;67.30;;;;;;6159499;23;20021;-66
2023/05/31 02:35:33;;;;;;;2.00;1.38;;;15.80;67.30;;;;;;6159568;23;20059;-66
2023/05/31 02:37:59;;;;;;;2.83;1.35;;;15.80;67.30;;;;;;6160139;23;20096;-65
2023/05/31 02:40:24;;;;;;;2.08;1.17;;;15.80;67.30;;;;;;6159307;23;20450;-66
2023/05/31 02:42:50;;;;;;;1.70;1.45;;;15.70;67.30;;;;;;6159088;23;20018;-65
2023/05/31 02:45:16;;;;;;;2.10;1.42;;;15.70;67.20;;;;;;6159810;23;20160;-66
2023/05/31 02:47:42;;;;;;;2.03;1.65;;;15.70;67.20;;;;;;6159426;23;20021;-66
2023/05/31 02:50:09;;;;;;;1.80;1.00;;;15.70;67.20;;;;;;6159266;23;20048;-66
2023/05/31 02:52:38;;;;;;;2.60;1.27;;;15.70;67.20;;;;;;6159445;23;20029;-65
2023/05/31 02:55:05;;;;;;;2.63;1.90;;;15.80;67.30;;;;;;6133675;23;20044;-66
2023/05/31 02:57:31;;;;;;;2.75;1.42;;;15.70;67.20;;;;;;6159417;23;20033;-66
2023/05/31 03:00:00;;;;;;;3.50;1.75;;;15.70;67.20;;;;;;6133785;23;20029;-66
2023/05/31 03:02:25;;;;;;;2.33;1.10;;;15.80;67.20;;;;;;6159548;23;20024;-66
2023/05/31 03:04:52;;;;;;;2.60;1.10;;;15.70;67.20;;;;;;6159011;23;20096;-65
2023/05/31 03:07:18;;;;;;;2.28;1.48;;;15.70;67.20;;;;;;6133454;23;20018;-65
2023/05/31 03:09:43;;;;;;;2.35;1.13;;;15.70;67.10;;;;;;6159492;23;20080;-65
2023/05/31 03:12:10;;;;;;;2.65;1.90;;;15.70;67.10;;;;;;6133558;23;20466;-66
2023/05/31 03:14:36;;;;;;;2.53;1.52;;;15.70;67.10;;;;;;6159187;23;20318;-65
2023/05/31 03:17:03;;;;;;;3.00;1.35;;;15.70;67.10;;;;;;6159101;23;20028;-65
2023/05/31 03:19:28;;;;;;;1.88;1.17;;;15.70;67.10;;;;;;6158911;23;20100;-66
2023/05/31 03:21:54;;;;;;;2.83;1.45;;;15.70;67.10;;;;;;6159049;23;20124;-66
2023/05/31 03:24:20;;;;;;;4.07;1.73;;;15.70;67.10;;;;;;6159060;23;20021;-65
2023/05/31 03:26:46;;;;;;;2.17;1.33;;;15.70;67.10;;;;;;6158975;23;20013;-65
2023/05/31 03:29:12;;;;;;;2.55;1.42;;;15.70;67.00;;;;;;6133993;23;20030;-65
2023/05/31 03:31:37;;;;;;;4.47;2.00;;;15.70;67.00;;;;;;6158910;23;20025;-65
2023/05/31 03:34:03;;;;;;;1.95;1.40;;;15.70;67.00;;;;;;6158558;23;20402;-65
2023/05/31 03:36:29;;;;;;;2.78;1.45;;;15.70;67.00;;;;;;6159101;23;20021;-66
2023/05/31 03:38:55;;;;;;;2.65;1.45;;;15.70;67.00;;;;;;6158836;23;20021;-65
2023/05/31 03:41:20;;;;;;;2.38;1.48;;;15.70;66.90;;;;;;6133455;23;20022;-65
2023/05/31 03:43:46;;;;;;;2.50;1.42;;;15.70;66.90;;;;;;6158456;23;20018;-66
2023/05/31 03:46:12;;;;;;;1.98;1.52;;;15.70;66.90;;;;;;6158906;23;20026;-66
2023/05/31 03:48:37;;;;;;;2.35;1.38;;;15.70;66.90;;;;;;6159414;23;20079;-65
2023/05/31 03:51:03;;;;;;;2.33;1.60;;;15.70;66.90;;;;;;6158381;23;20025;-65
2023/05/31 03:53:29;;;;;;;2.65;1.50;;;15.70;66.90;;;;;;6158810;23;20013;-65
2023/05/31 03:55:55;;;;;;;3.05;1.35;;;15.70;66.90;;;;;;6158833;23;20047;-66
2023/05/31 03:58:21;;;;;;;1.75;1.25;;;15.70;66.90;;;;;;6159301;23;20021;-65
2023/05/31 04:00:46;;;;;;;1.92;1.25;;;15.70;67.50;;;;;;6158909;23;20322;-65
2023/05/31 04:03:13;;;;;;;2.28;1.35;;;15.70;66.90;;;;;;6158968;23;20307;-66
2023/05/31 04:05:39;;;;;;;2.60;1.70;;;15.70;66.90;;;;;;6158684;23;20133;-65
2023/05/31 04:08:05;;;;;;;1.83;1.23;;;15.70;66.90;;;;;;6158624;23;20096;-65
2023/05/31 04:10:31;;;;;;;2.72;1.63;;;15.70;66.90;;;;;;6158686;23;20017;-65
2023/05/31 04:12:57;;;;;;;2.35;1.40;;;15.70;66.90;;;;;;6158359;23;20021;-65
2023/05/31 04:15:22;;;;;;;1.98;1.02;;;15.70;66.90;;;;;;6158879;23;20018;-66
2023/05/31 04:17:48;;;;;;;3.38;1.38;;;15.70;66.90;;;;;;6158599;23;20020;-66
2023/05/31 04:20:16;;;;;;;2.65;1.52;;;15.70;67.00;;;;;;6158365;23;20024;-65
2023/05/31 04:22:42;;;;;;;2.45;1.50;;;15.70;66.90;;;;;;6158228;23;20024;-65
2023/05/31 04:25:09;;;;;;;2.95;1.70;;;15.70;66.90;;;;;;6158504;23;20017;-66
2023/05/31 04:27:38;;;;;;;2.47;1.20;;;15.70;66.90;;;;;;6158187;23;20056;-65
2023/05/31 04:30:05;;;;;;;2.33;1.40;;;15.70;66.90;;;;;;6158417;23;20093;-65
2023/05/31 04:32:33;;;;;;;3.05;1.75;;;15.70;66.90;;;;;;6158168;23;20096;-65
2023/05/31 04:35:03;;;;;;;3.15;1.38;;;15.70;66.90;;;;;;6158329;23;20057;-65
2023/05/31 04:37:30;;;;;;;1.58;1.10;;;15.70;66.90;;;;;;6158391;23;20022;-65
2023/05/31 04:39:57;;;;;;;2.00;1.20;;;15.70;66.90;;;;;;6158233;23;20017;-65
2023/05/31 04:42:26;;;;;;;2.33;1.50;;;15.70;66.90;;;;;;6158217;23;20116;-66
2023/05/31 04:44:58;;;;;;;1.88;1.40;;;15.70;66.90;;;;;;6158134;23;20028;-65
2023/05/31 04:47:28;;;;;;;3.33;1.67;;;15.70;66.90;;;;;;6158248;23;20013;-66
2023/05/31 04:49:57;;;;;;;2.60;1.38;;;15.70;66.90;;;;;;6158573;23;20013;-66
2023/05/31 04:52:28;;;;;;;3.70;1.45;;;15.70;66.90;;;;;;6132881;23;20018;-66
2023/05/31 04:54:55;;;;;;;1.75;1.30;;;15.70;66.90;;;;;;6158040;23;20359;-66
2023/05/31 04:57:22;;;;;;;2.38;1.17;;;15.60;66.90;;;;;;6158158;23;20017;-65
2023/05/31 04:59:47;;;;;;;1.80;1.00;;;15.70;67.50;;;;;;6132014;23;20080;-65
2023/05/31 05:02:13;;;;;;;1.45;1.30;;;15.70;66.90;;;;;;6158046;23;20044;-66
2023/05/31 05:04:39;;;;;;;3.58;1.88;;;15.70;66.90;;;;;;6158763;23;20088;-65
2023/05/31 05:07:05;;;;;;;1.67;1.15;;;15.70;66.90;;;;;;6157681;23;20308;-65
2023/05/31 05:09:32;;;;;;;1.77;1.05;;;15.70;66.80;;;;;;6158093;23;20033;-66
2023/05/31 05:11:57;;;;;;;1.52;1.10;;;15.70;66.80;;;;;;6158292;23;20306;-65
2023/05/31 05:14:23;;;;;;;2.47;1.25;;;15.70;66.80;;;;;;6158050;23;20045;-65
2023/05/31 05:16:49;;;;;;;1.67;1.10;;;15.70;66.70;;;;;;6131861;23;20043;-65
2023/05/31 05:19:15;;;;;;;1.73;1.42;;;15.70;66.70;;;;;;6158684;23;20013;-65
2023/05/31 05:21:41;;;;;;;1.70;1.30;;;15.70;66.70;;;;;;6158022;23;20374;-66
2023/05/31 05:24:06;;;;;;;2.60;1.33;;;15.70;66.70;;;;;;6157556;23;20063;-65
2023/05/31 05:26:33;;;;;;;3.13;1.83;;;15.70;66.70;;;;;;6158374;23;20029;-66
2023/05/31 05:28:59;;;;;;;2.22;1.20;;;15.70;66.70;;;;;;6158058;23;20418;-65
2023/05/31 05:31:24;;;;;;;2.40;1.25;;;15.70;66.70;;;;;;6157559;23;20028;-65
2023/05/31 05:33:54;;;;;;;3.15;1.90;;;15.70;66.70;;;;;;6157559;23;20468;-65
2023/05/31 05:36:20;;;;;;;4.15;1.98;;;15.70;66.70;;;;;;6157870;23;20028;-65
2023/05/31 05:38:46;;;;;;;3.15;1.50;;;15.70;66.60;;;;;;6158050;23;20024;-65
2023/05/31 05:41:12;;;;;;;2.00;1.25;;;15.70;66.60;;;;;;6157788;23;20430;-65
2023/05/31 05:43:39;;;;;;;2.60;1.58;;;15.70;66.60;;;;;;6131892;23;20032;-65
2023/05/31 05:46:05;;;;;;;2.53;1.40;;;15.70;66.70;;;;;;6158555;23;20022;-65
2023/05/31 05:48:31;;;;;;;3.55;1.40;;;15.70;66.60;;;;;;6157767;23;20013;-66
2023/05/31 05:50:58;;;;;;;2.67;1.60;;;15.70;66.60;;;;;;6158443;23;20017;-67
2023/05/31 05:53:24;;;;;;;2.55;1.20;;;15.70;66.70;;;;;;6157891;23;20292;-65
2023/05/31 05:55:54;;;;;;;2.65;1.73;;;15.70;66.70;;;;;;6157689;23;20465;-65
2023/05/31 05:58:20;;;;;;;2.83;1.38;;;15.70;66.70;;;;;;6159758;23;20014;-65
2023/05/31 06:00:47;;;;;;;2.88;1.50;;;15.70;66.60;;;;;;6133864;23;20049;-65
2023/05/31 06:03:14;;;;;;;1.95;1.40;;;15.70;66.70;;;;;;6159881;23;20024;-65
2023/05/31 06:05:41;;;;;;;2.88;1.77;;;15.70;66.70;;;;;;6159332;23;20099;-65
2023/05/31 06:08:11;;;;;;;2.95;1.45;;;15.80;66.80;;;;;;6159447;23;20099;-66
2023/05/31 06:10:40;;;;;;;2.50;1.55;;;15.80;66.80;;;;;;6133561;23;20017;-65
2023/05/31 06:13:06;;;;;;;2.33;1.70;;;15.80;66.80;;;;;;6159623;23;20025;-65
2023/05/31 06:15:32;;;;;;;4.20;1.48;;;15.80;67.40;;;;;;6134857;23;20017;-65
2023/05/31 06:17:58;;;;;;;2.10;1.55;;;15.90;66.80;;;;;;6134384;23;20084;-65
2023/05/31 06:20:25;;;;;;;2.58;1.25;;;15.90;66.80;;;;;;6158937;23;20025;-65
2023/05/31 06:22:51;;;;;;;2.47;1.67;;;15.90;66.90;;;;;;6158793;23;20424;-66
2023/05/31 06:25:17;;;;;;;3.17;1.60;;;15.90;66.90;;;;;;6158915;23;20018;-66
2023/05/31 06:27:45;;;;;;;3.28;1.75;;;15.90;66.90;;;;;;6159104;23;20053;-66
2023/05/31 06:30:12;;;;;;;2.88;1.38;;;15.90;66.90;;;;;;6159369;23;20056;-65
2023/05/31 06:32:38;;;;;;;1.77;1.33;;;15.90;66.80;;;;;;6159673;23;20064;-65
2023/05/31 06:35:04;;;;;;;2.95;1.73;;;15.80;66.80;;;;;;6159799;23;20017;-65
2023/05/31 06:37:31;;;;;;;1.65;1.40;;;15.90;66.90;;;;;;6159424;23;20025;-65
2023/05/31 06:39:57;;;;;;;3.08;1.58;;;15.90;67.00;;;;;;6159327;23;20025;-66
2023/05/31 06:42:23;;;;;;;1.77;1.30;;;15.90;67.00;;;;;;6158957;23;20018;-66
2023/05/31 06:44:50;;;;;;;1.98;1.40;;;15.90;67.00;;;;;;6158746;23;20017;-65
2023/05/31 06:47:16;;;;;;;2.75;1.42;;;15.90;66.90;;;;;;6159012;23;20465;-65
2023/05/31 06:49:42;;;;;;;3.15;1.35;;;15.90;66.90;;;;;;6159542;23;20009;-65
2023/05/31 06:52:10;;;;;;;4.72;1.50;;;16.00;67.00;;;;;;6159045;23;20352;-65
2023/05/31 06:54:37;;;;;;;3.08;1.75;;;16.00;66.90;;;;;;6159797;23;20031;-65
2023/05/31 06:57:03;;;;;;;3.22;1.88;;;16.00;66.90;;;;;;6159115;23;20125;-66
2023/05/31 06:59:29;;;;;;;3.72;1.48;;;16.00;66.90;;;;;;6159570;23;20145;-65
2023/05/31 07:01:55;;;;;;;2.97;1.52;;;16.00;66.90;;;;;;6158608;23;20429;-66
2023/05/31 07:04:22;;;;;;;2.55;1.42;;;16.10;67.00;;;;;;6158709;23;20053;-65
2023/05/31 07:06:48;;;;;;;2.75;1.85;;;16.10;67.00;;;;;;6158668;23;20025;-65
2023/05/31 07:09:13;;;;;;;4.90;2.25;;;16.10;67.00;;;;;;6159194;23;20101;-65
2023/05/31 07:11:40;;;;;;;2.17;1.65;;;16.10;67.00;;;;;;6159053;23;20030;-65
2023/05/31 07:14:05;;;;;;;3.38;1.77;;;16.10;67.10;;;;;;6158924;23;20017;-65
2023/05/31 07:16:31;;;;;;;5.75;2.28;;;16.20;67.40;;;;;;6158762;23;20032;-65
2023/05/31 07:18:57;;;;;;;7.63;2.60;;;16.20;67.80;;;;;;6159061;23;20032;-65
2023/05/31 07:21:23;;;;;;;12.23;2.80;;;16.20;68.10;;;;;;6159365;23;20057;-65
2023/05/31 07:23:49;;;;;;;7.22;2.45;;;16.20;68.20;;;;;;6158506;23;20075;-65
